sensor_id;sensor_type;location;lat;lon;timestamp;pressure;altitude;pressure_sealevel;temperature;humidity
18500;BME280;9379;52.134;11.576;2023-05-19T00:01:12;102030.28;;;14.72;68.22
18500;BME280;9379;52.134;11.576;2023-05-19T00:03:48;102025.84;;;14.50;68.91
18500;BME280;9379;52.134;11.576;2023-05-19T00:06:21;102025.97;;;14.37;69.48
18500;BME280;9379;52.134;11.576;2023-05-19T00:08:49;102025.97;;;14.37;69.45
18500;BME280;9379;52.134;11.576;2023-05-19T00:11:21;102027.56;;;14.28;69.77
18500;BME280;9379;52.134;11.576;2023-05-19T00:13:50;102027.19;;;14.44;69.83
18500;BME280;9379;52.134;11.576;2023-05-19T00:16:18;102027.72;;;14.70;69.32
18500;BME280;9379;52.134;11.576;2023-05-19T00:18:44;102027.28;;;14.43;69.81
18500;BME280;9379;52.134;11.576;2023-05-19T00:21:13;102022.50;;;14.57;69.64
18500;BME280;9379;52.134;11.576;2023-05-19T00:23:41;102014.03;;;14.84;68.82
18500;BME280;9379;52.134;11.576;2023-05-19T00:26:08;102017.75;;;14.93;68.42
18500;BME280;9379;52.134;11.576;2023-05-19T00:28:35;102017.75;;;15.14;67.78
18500;BME280;9379;52.134;11.576;2023-05-19T00:31:03;102019.72;;;15.12;68.15
18500;BME280;9379;52.134;11.576;2023-05-19T00:33:31;102017.63;;;15.36;67.36
18500;BME280;9379;52.134;11.576;2023-05-19T00:35:58;102016.66;;;15.37;67.22
18500;BME280;9379;52.134;11.576;2023-05-19T00:38:27;102018.25;;;15.19;68.24
18500;BME280;9379;52.134;11.576;2023-05-19T00:40:55;102008.31;;;15.31;68.04
18500;BME280;9379;52.134;11.576;2023-05-19T00:43:22;102007.69;;;15.27;68.41
18500;BME280;9379;52.134;11.576;2023-05-19T00:45:49;102003.66;;;15.33;68.59
18500;BME280;9379;52.134;11.576;2023-05-19T00:48:18;102004.09;;;15.38;67.56
18500;BME280;9379;52.134;11.576;2023-05-19T00:50:45;102013.91;;;15.48;67.03
18500;BME280;9379;52.134;11.576;2023-05-19T00:53:12;102010.78;;;15.64;66.55
18500;BME280;9379;52.134;11.576;2023-05-19T00:55:39;102009.72;;;15.56;67.14
18500;BME280;9379;52.134;11.576;2023-05-19T00:58:08;102013.84;;;15.60;67.31
18500;BME280;9379;52.134;11.576;2023-05-19T01:00:35;101999.50;;;14.66;69.40
18500;BME280;9379;52.134;11.576;2023-05-19T01:03:03;102006.34;;;15.12;68.09
18500;BME280;9379;52.134;11.576;2023-05-19T01:05:38;102000.34;;;14.99;68.38
18500;BME280;9379;52.134;11.576;2023-05-19T01:08:06;102004.44;;;15.03;68.39
18500;BME280;9379;52.134;11.576;2023-05-19T01:10:33;102010.13;;;15.09;68.44
18500;BME280;9379;52.134;11.576;2023-05-19T01:13:00;102008.50;;;15.18;68.65
18500;BME280;9379;52.134;11.576;2023-05-19T01:15:29;102004.75;;;14.88;69.49
18500;BME280;9379;52.134;11.576;2023-05-19T01:18:00;102022.41;;;15.12;69.04
18500;BME280;9379;52.134;11.576;2023-05-19T01:20:34;102013.34;;;15.24;68.74
18500;BME280;9379;52.134;11.576;2023-05-19T01:23:28;102014.09;;;15.36;68.43
18500;BME280;9379;52.134;11.576;2023-05-19T01:26:31;102021.69;;;15.52;68.83
18500;BME280;9379;52.134;11.576;2023-05-19T01:29:27;102013.38;;;15.55;68.43
18500;BME280;9379;52.134;11.576;2023-05-19T01:31:58;102004.31;;;15.25;68.62
18500;BME280;9379;52.134;11.576;2023-05-19T01:34:26;102009.56;;;14.74;70.68
18500;BME280;9379;52.134;11.576;2023-05-19T01:36:54;102015.16;;;15.03;70.04
18500;BME280;9379;52.134;11.576;2023-05-19T01:39:22;102012.03;;;15.18;69.89
18500;BME280;9379;52.134;11.576;2023-05-19T01:41:49;102008.16;;;14.91;71.10
18500;BME280;9379;52.134;11.576;2023-05-19T01:44:17;102009.97;;;14.90;70.91
18500;BME280;9379;52.134;11.576;2023-05-19T01:46:47;102010.88;;;14.79;71.25
18500;BME280;9379;52.134;11.576;2023-05-19T01:49:16;102009.41;;;14.86;71.19
18500;BME280;9379;52.134;11.576;2023-05-19T01:51:42;102010.75;;;14.81;70.44
18500;BME280;9379;52.134;11.576;2023-05-19T01:54:09;102014.97;;;14.63;72.29
18500;BME280;9379;52.134;11.576;2023-05-19T01:56:41;102011.44;;;14.94;70.25
18500;BME280;9379;52.134;11.576;2023-05-19T01:59:23;102001.88;;;14.80;71.49
18500;BME280;9379;52.134;11.576;2023-05-19T02:01:53;102012.28;;;14.63;72.15
18500;BME280;9379;52.134;11.576;2023-05-19T02:04:29;101999.81;;;14.84;70.64
18500;BME280;9379;52.134;11.576;2023-05-19T02:07:10;102010.84;;;14.58;71.61
18500;BME280;9379;52.134;11.576;2023-05-19T02:09:45;102013.13;;;14.95;70.48
18500;BME280;9379;52.134;11.576;2023-05-19T02:12:19;102012.47;;;15.03;70.54
18500;BME280;9379;52.134;11.576;2023-05-19T02:14:53;102002.84;;;14.79;71.19
18500;BME280;9379;52.134;11.576;2023-05-19T02:17:26;102012.28;;;14.95;70.15
18500;BME280;9379;52.134;11.576;2023-05-19T02:19:58;102012.00;;;14.77;71.05
18500;BME280;9379;52.134;11.576;2023-05-19T02:22:25;102014.16;;;14.83;70.63
18500;BME280;9379;52.134;11.576;2023-05-19T02:24:52;102011.81;;;14.57;71.05
18500;BME280;9379;52.134;11.576;2023-05-19T02:27:20;102013.41;;;14.81;70.95
18500;BME280;9379;52.134;11.576;2023-05-19T02:29:47;102010.03;;;14.79;70.90
18500;BME280;9379;52.134;11.576;2023-05-19T02:32:14;102006.97;;;14.40;72.07
18500;BME280;9379;52.134;11.576;2023-05-19T02:34:41;102004.75;;;14.88;70.69
18500;BME280;9379;52.134;11.576;2023-05-19T02:37:11;102001.28;;;14.77;71.02
18500;BME280;9379;52.134;11.576;2023-05-19T02:39:38;102000.84;;;14.72;70.86
18500;BME280;9379;52.134;11.576;2023-05-19T02:42:05;101998.38;;;14.69;71.38
18500;BME280;9379;52.134;11.576;2023-05-19T02:44:31;102003.56;;;14.81;70.71
18500;BME280;9379;52.134;11.576;2023-05-19T02:46:58;102005.53;;;14.79;71.29
18500;BME280;9379;52.134;11.576;2023-05-19T02:49:25;102001.75;;;14.50;71.88
18500;BME280;9379;52.134;11.576;2023-05-19T02:51:55;101995.97;;;14.66;72.52
18500;BME280;9379;52.134;11.576;2023-05-19T02:54:23;101997.25;;;14.50;72.55
18500;BME280;9379;52.134;11.576;2023-05-19T02:56:49;101991.66;;;14.42;72.51
18500;BME280;9379;52.134;11.576;2023-05-19T02:59:16;101988.78;;;14.12;73.51
18500;BME280;9379;52.134;11.576;2023-05-19T03:01:43;101998.38;;;14.37;73.96
18500;BME280;9379;52.134;11.576;2023-05-19T03:04:11;101991.69;;;14.20;72.92
18500;BME280;9379;52.134;11.576;2023-05-19T03:06:39;101996.78;;;14.23;73.19
18500;BME280;9379;52.134;11.576;2023-05-19T03:09:06;101992.97;;;14.05;74.12
18500;BME280;9379;52.134;11.576;2023-05-19T03:11:35;101990.97;;;14.29;73.30
18500;BME280;9379;52.134;11.576;2023-05-19T03:14:02;101997.63;;;14.23;73.15
18500;BME280;9379;52.134;11.576;2023-05-19T03:16:29;101990.13;;;14.28;73.12
18500;BME280;9379;52.134;11.576;2023-05-19T03:18:56;101998.28;;;14.16;73.15
18500;BME280;9379;52.134;11.576;2023-05-19T03:21:24;101996.38;;;13.84;74.34
18500;BME280;9379;52.134;11.576;2023-05-19T03:23:51;101997.81;;;13.66;75.31
18500;BME280;9379;52.134;11.576;2023-05-19T03:26:19;101999.66;;;13.43;75.81
18500;BME280;9379;52.134;11.576;2023-05-19T03:28:48;101999.53;;;13.56;75.55
18500;BME280;9379;52.134;11.576;2023-05-19T03:31:15;102000.84;;;13.39;76.13
18500;BME280;9379;52.134;11.576;2023-05-19T03:33:42;102004.25;;;13.52;75.35
18500;BME280;9379;52.134;11.576;2023-05-19T03:36:08;102006.91;;;13.41;76.16
18500;BME280;9379;52.134;11.576;2023-05-19T03:38:36;102016.63;;;13.42;76.09
18500;BME280;9379;52.134;11.576;2023-05-19T03:41:03;102012.06;;;13.66;75.02
18500;BME280;9379;52.134;11.576;2023-05-19T03:43:30;102016.53;;;13.55;75.29
18500;BME280;9379;52.134;11.576;2023-05-19T03:45:58;102008.53;;;13.55;75.28
18500;BME280;9379;52.134;11.576;2023-05-19T03:48:26;102012.75;;;13.46;75.68
18500;BME280;9379;52.134;11.576;2023-05-19T03:50:53;102014.94;;;13.63;75.65
18500;BME280;9379;52.134;11.576;2023-05-19T03:53:20;102012.91;;;13.67;75.18
18500;BME280;9379;52.134;11.576;2023-05-19T03:55:46;102004.59;;;13.36;75.84
18500;BME280;9379;52.134;11.576;2023-05-19T03:58:14;102017.72;;;13.39;75.91
18500;BME280;9379;52.134;11.576;2023-05-19T04:00:41;102010.94;;;13.58;75.38
18500;BME280;9379;52.134;11.576;2023-05-19T04:03:09;102008.28;;;13.69;75.18
18500;BME280;9379;52.134;11.576;2023-05-19T04:05:36;102009.13;;;13.92;74.39
18500;BME280;9379;52.134;11.576;2023-05-19T04:08:03;102013.25;;;14.07;73.96
18500;BME280;9379;52.134;11.576;2023-05-19T04:10:29;102007.06;;;13.62;75.07
18500;BME280;9379;52.134;11.576;2023-05-19T04:12:56;102009.59;;;13.63;75.14
18500;BME280;9379;52.134;11.576;2023-05-19T04:15:23;102013.84;;;13.88;74.25
18500;BME280;9379;52.134;11.576;2023-05-19T04:17:50;102011.66;;;14.05;74.34
18500;BME280;9379;52.134;11.576;2023-05-19T04:20:18;102010.72;;;13.83;73.85
18500;BME280;9379;52.134;11.576;2023-05-19T04:22:45;102017.63;;;14.08;73.95
18500;BME280;9379;52.134;11.576;2023-05-19T04:25:12;102004.63;;;13.92;73.73
18500;BME280;9379;52.134;11.576;2023-05-19T04:27:38;102015.44;;;14.02;73.69
18500;BME280;9379;52.134;11.576;2023-05-19T04:30:06;101999.63;;;14.10;72.71
18500;BME280;9379;52.134;11.576;2023-05-19T04:32:33;102016.78;;;13.74;74.06
18500;BME280;9379;52.134;11.576;2023-05-19T04:35:02;102016.38;;;14.12;73.06
18500;BME280;9379;52.134;11.576;2023-05-19T04:37:30;102021.63;;;14.25;72.68
18500;BME280;9379;52.134;11.576;2023-05-19T04:39:57;102035.44;;;14.30;72.32
18500;BME280;9379;52.134;11.576;2023-05-19T04:42:25;102028.13;;;14.43;71.58
18500;BME280;9379;52.134;11.576;2023-05-19T04:44:54;102030.25;;;14.17;72.46
18500;BME280;9379;52.134;11.576;2023-05-19T04:47:21;102023.47;;;14.13;72.04
18500;BME280;9379;52.134;11.576;2023-05-19T04:49:52;102019.69;;;13.93;72.77
18500;BME280;9379;52.134;11.576;2023-05-19T04:52:25;102020.28;;;14.19;72.71
18500;BME280;9379;52.134;11.576;2023-05-19T04:54:53;102011.91;;;14.24;72.91
18500;BME280;9379;52.134;11.576;2023-05-19T04:57:20;102006.41;;;14.25;72.62
18500;BME280;9379;52.134;11.576;2023-05-19T04:59:47;102011.78;;;14.69;71.15
18500;BME280;9379;52.134;11.576;2023-05-19T05:02:13;102008.81;;;14.40;71.57
18500;BME280;9379;52.134;11.576;2023-05-19T05:04:40;102012.88;;;14.00;72.57
18500;BME280;9379;52.134;11.576;2023-05-19T05:07:08;102005.59;;;14.02;71.88
18500;BME280;9379;52.134;11.576;2023-05-19T05:09:35;102008.47;;;14.11;71.88
18500;BME280;9379;52.134;11.576;2023-05-19T05:12:04;101998.25;;;14.49;71.58
18500;BME280;9379;52.134;11.576;2023-05-19T05:14:32;102007.06;;;14.61;70.32
18500;BME280;9379;52.134;11.576;2023-05-19T05:17:00;101998.34;;;14.80;69.26
18500;BME280;9379;52.134;11.576;2023-05-19T05:19:27;101998.69;;;14.43;69.91
18500;BME280;9379;52.134;11.576;2023-05-19T05:21:55;101992.03;;;14.49;69.88
18500;BME280;9379;52.134;11.576;2023-05-19T05:24:22;101996.69;;;14.24;69.59
18500;BME280;9379;52.134;11.576;2023-05-19T05:26:50;102007.44;;;14.56;69.88
18500;BME280;9379;52.134;11.576;2023-05-19T05:29:18;101987.81;;;14.24;69.68
18500;BME280;9379;52.134;11.576;2023-05-19T05:31:45;101990.22;;;14.38;69.09
18500;BME280;9379;52.134;11.576;2023-05-19T05:34:12;102005.34;;;14.92;68.60
18500;BME280;9379;52.134;11.576;2023-05-19T05:36:39;101999.31;;;14.79;68.40
18500;BME280;9379;52.134;11.576;2023-05-19T05:39:06;101998.97;;;14.83;67.97
18500;BME280;9379;52.134;11.576;2023-05-19T05:41:33;102000.66;;;14.84;67.89
18500;BME280;9379;52.134;11.576;2023-05-19T05:44:00;101994.69;;;14.81;68.53
18500;BME280;9379;52.134;11.576;2023-05-19T05:46:29;102007.66;;;14.97;68.28
18500;BME280;9379;52.134;11.576;2023-05-19T05:48:56;101999.66;;;14.53;68.30
18500;BME280;9379;52.134;11.576;2023-05-19T05:51:23;102006.72;;;14.54;68.49
18500;BME280;9379;52.134;11.576;2023-05-19T05:53:52;102015.25;;;14.80;68.44
18500;BME280;9379;52.134;11.576;2023-05-19T05:56:19;102016.13;;;15.02;68.25
18500;BME280;9379;52.134;11.576;2023-05-19T05:58:46;102009.22;;;14.24;69.54
18500;BME280;9379;52.134;11.576;2023-05-19T06:01:13;102018.91;;;14.79;68.52
18500;BME280;9379;52.134;11.576;2023-05-19T06:03:43;102016.94;;;14.61;68.90
18500;BME280;9379;52.134;11.576;2023-05-19T06:09:32;102031.84;;;14.74;68.92
18500;BME280;9379;52.134;11.576;2023-05-19T06:11:59;102022.69;;;15.09;68.10
18500;BME280;9379;52.134;11.576;2023-05-19T06:14:26;102019.72;;;15.74;67.46
18500;BME280;9379;52.134;11.576;2023-05-19T06:40:47;102011.56;;;15.34;68.94
18500;BME280;9379;52.134;11.576;2023-05-19T06:43:14;102028.09;;;14.98;68.80
18500;BME280;9379;52.134;11.576;2023-05-19T06:45:41;102019.88;;;15.52;68.17
18500;BME280;9379;52.134;11.576;2023-05-19T06:48:07;102011.69;;;15.54;67.20
18500;BME280;9379;52.134;11.576;2023-05-19T06:50:34;102012.28;;;15.36;67.14
18500;BME280;9379;52.134;11.576;2023-05-19T06:53:01;102012.47;;;15.65;67.59
18500;BME280;9379;52.134;11.576;2023-05-19T06:55:27;102010.41;;;16.19;65.23
18500;BME280;9379;52.134;11.576;2023-05-19T06:57:56;102020.19;;;15.89;66.41
18500;BME280;9379;52.134;11.576;2023-05-19T07:00:23;102019.09;;;15.40;67.31
18500;BME280;9379;52.134;11.576;2023-05-19T07:02:50;102013.72;;;15.92;67.08
18500;BME280;9379;52.134;11.576;2023-05-19T07:05:19;102010.72;;;16.25;67.31
18500;BME280;9379;52.134;11.576;2023-05-19T07:07:49;101998.19;;;16.45;65.60
18500;BME280;9379;52.134;11.576;2023-05-19T07:10:16;102016.03;;;16.75;65.65
18500;BME280;9379;52.134;11.576;2023-05-19T07:12:43;102013.56;;;16.53;66.43
18500;BME280;9379;52.134;11.576;2023-05-19T07:15:11;102013.63;;;16.91;66.40
18500;BME280;9379;52.134;11.576;2023-05-19T07:17:38;102018.91;;;16.43;66.77
18500;BME280;9379;52.134;11.576;2023-05-19T07:20:06;102021.31;;;15.87;67.72
18500;BME280;9379;52.134;11.576;2023-05-19T07:22:34;102015.09;;;16.26;67.83
18500;BME280;9379;52.134;11.576;2023-05-19T07:25:01;102026.59;;;16.67;65.10
18500;BME280;9379;52.134;11.576;2023-05-19T07:27:28;102011.00;;;16.22;67.23
18500;BME280;9379;52.134;11.576;2023-05-19T07:29:54;102018.16;;;16.72;65.33
18500;BME280;9379;52.134;11.576;2023-05-19T07:32:23;102013.78;;;16.80;63.72
18500;BME280;9379;52.134;11.576;2023-05-19T07:34:50;102019.13;;;17.09;63.76
18500;BME280;9379;52.134;11.576;2023-05-19T07:37:17;102008.31;;;16.42;65.04
18500;BME280;9379;52.134;11.576;2023-05-19T07:39:43;102013.03;;;16.59;66.77
18500;BME280;9379;52.134;11.576;2023-05-19T07:42:10;102013.50;;;16.14;67.96
18500;BME280;9379;52.134;11.576;2023-05-19T07:44:37;102008.25;;;16.82;65.92
18500;BME280;9379;52.134;11.576;2023-05-19T07:47:04;102010.19;;;17.28;64.69
18500;BME280;9379;52.134;11.576;2023-05-19T07:49:33;102002.91;;;16.91;65.16
18500;BME280;9379;52.134;11.576;2023-05-19T07:51:59;102002.25;;;16.40;66.93
18500;BME280;9379;52.134;11.576;2023-05-19T07:54:26;102002.00;;;17.01;66.64
18500;BME280;9379;52.134;11.576;2023-05-19T07:56:53;101997.78;;;17.08;66.32
18500;BME280;9379;52.134;11.576;2023-05-19T07:59:20;102000.47;;;16.98;66.74
18500;BME280;9379;52.134;11.576;2023-05-19T08:01:47;101996.59;;;17.39;66.22
18500;BME280;9379;52.134;11.576;2023-05-19T08:04:14;102002.22;;;17.36;66.38
18500;BME280;9379;52.134;11.576;2023-05-19T08:06:42;101997.34;;;17.59;65.88
18500;BME280;9379;52.134;11.576;2023-05-19T08:09:09;102002.72;;;18.06;65.39
18500;BME280;9379;52.134;11.576;2023-05-19T08:11:36;102003.88;;;17.57;66.20
18500;BME280;9379;52.134;11.576;2023-05-19T08:14:03;101997.59;;;18.76;63.72
18500;BME280;9379;52.134;11.576;2023-05-19T08:16:30;101998.25;;;18.15;64.11
18500;BME280;9379;52.134;11.576;2023-05-19T08:18:57;102008.22;;;17.67;65.80
18500;BME280;9379;52.134;11.576;2023-05-19T08:21:26;102005.84;;;18.01;65.55
18500;BME280;9379;52.134;11.576;2023-05-19T08:23:55;101995.69;;;18.41;64.69
18500;BME280;9379;52.134;11.576;2023-05-19T08:26:21;101987.06;;;18.64;64.97
18500;BME280;9379;52.134;11.576;2023-05-19T08:28:48;101984.63;;;18.44;65.06
18500;BME280;9379;52.134;11.576;2023-05-19T08:31:15;101984.63;;;18.44;64.81
18500;BME280;9379;52.134;11.576;2023-05-19T08:33:42;101968.91;;;18.21;65.93
18500;BME280;9379;52.134;11.576;2023-05-19T08:36:10;101984.38;;;18.64;64.71
18500;BME280;9379;52.134;11.576;2023-05-19T08:38:37;101975.00;;;18.94;64.02
18500;BME280;9379;52.134;11.576;2023-05-19T08:41:05;101968.34;;;19.24;63.62
18500;BME280;9379;52.134;11.576;2023-05-19T08:43:34;101951.59;;;19.21;63.52
18500;BME280;9379;52.134;11.576;2023-05-19T08:46:02;101954.03;;;18.80;64.04
18500;BME280;9379;52.134;11.576;2023-05-19T08:48:32;101955.47;;;18.75;65.46
18500;BME280;9379;52.134;11.576;2023-05-19T08:51:06;101961.63;;;18.49;66.22
18500;BME280;9379;52.134;11.576;2023-05-19T08:53:40;101955.09;;;18.70;65.89
18500;BME280;9379;52.134;11.576;2023-05-19T08:56:13;101945.53;;;18.57;64.53
18500;BME280;9379;52.134;11.576;2023-05-19T08:58:42;101946.22;;;18.59;64.39
18500;BME280;9379;52.134;11.576;2023-05-19T09:01:12;101943.94;;;18.82;64.00
18500;BME280;9379;52.134;11.576;2023-05-19T09:03:42;101944.69;;;18.21;66.42
18500;BME280;9379;52.134;11.576;2023-05-19T09:06:09;101936.34;;;18.42;64.63
18500;BME280;9379;52.134;11.576;2023-05-19T09:08:38;101926.16;;;18.72;63.99
18500;BME280;9379;52.134;11.576;2023-05-19T09:11:05;101924.16;;;18.74;62.01
18500;BME280;9379;52.134;11.576;2023-05-19T09:13:33;101926.84;;;18.74;60.69
18500;BME280;9379;52.134;11.576;2023-05-19T09:16:01;101930.78;;;19.05;60.79
18500;BME280;9379;52.134;11.576;2023-05-19T09:18:28;101916.41;;;18.35;62.06
18500;BME280;9379;52.134;11.576;2023-05-19T09:20:56;101917.41;;;19.21;61.06
18500;BME280;9379;52.134;11.576;2023-05-19T09:23:26;101915.59;;;19.22;61.66
18500;BME280;9379;52.134;11.576;2023-05-19T09:25:54;101911.22;;;19.29;59.96
18500;BME280;9379;52.134;11.576;2023-05-19T09:28:25;101916.00;;;19.09;60.23
18500;BME280;9379;52.134;11.576;2023-05-19T09:30:59;101908.75;;;19.36;62.38
18500;BME280;9379;52.134;11.576;2023-05-19T09:33:27;101916.78;;;20.04;60.31
18500;BME280;9379;52.134;11.576;2023-05-19T09:35:54;101909.84;;;19.93;57.84
18500;BME280;9379;52.134;11.576;2023-05-19T09:38:23;101909.09;;;19.75;55.50
18500;BME280;9379;52.134;11.576;2023-05-19T09:40:50;101894.44;;;19.77;55.18
18500;BME280;9379;52.134;11.576;2023-05-19T09:43:17;101903.59;;;19.50;54.29
18500;BME280;9379;52.134;11.576;2023-05-19T09:45:44;101900.03;;;19.16;54.50
18500;BME280;9379;52.134;11.576;2023-05-19T09:48:13;101913.88;;;19.81;54.00
18500;BME280;9379;52.134;11.576;2023-05-19T09:50:41;101896.25;;;19.61;54.41
18500;BME280;9379;52.134;11.576;2023-05-19T09:53:11;101895.81;;;19.47;54.56
18500;BME280;9379;52.134;11.576;2023-05-19T09:55:39;101901.00;;;19.75;54.15
18500;BME280;9379;52.134;11.576;2023-05-19T09:58:07;101886.88;;;19.81;53.69
18500;BME280;9379;52.134;11.576;2023-05-19T10:00:34;101887.41;;;20.01;53.22
18500;BME280;9379;52.134;11.576;2023-05-19T10:03:03;101898.09;;;20.19;52.23
18500;BME280;9379;52.134;11.576;2023-05-19T10:05:32;101890.69;;;20.29;52.20
18500;BME280;9379;52.134;11.576;2023-05-19T10:08:00;101898.81;;;20.45;51.86
18500;BME280;9379;52.134;11.576;2023-05-19T10:10:27;101884.25;;;20.30;51.16
18500;BME280;9379;52.134;11.576;2023-05-19T10:12:56;101876.97;;;20.14;51.50
18500;BME280;9379;52.134;11.576;2023-05-19T10:15:25;101890.81;;;20.03;52.64
18500;BME280;9379;52.134;11.576;2023-05-19T10:17:52;101882.53;;;20.04;52.64
18500;BME280;9379;52.134;11.576;2023-05-19T10:20:20;101869.91;;;20.21;52.23
18500;BME280;9379;52.134;11.576;2023-05-19T10:22:48;101875.00;;;20.40;53.04
18500;BME280;9379;52.134;11.576;2023-05-19T10:25:15;101871.56;;;19.98;53.56
18500;BME280;9379;52.134;11.576;2023-05-19T10:27:50;101873.28;;;20.31;53.66
18500;BME280;9379;52.134;11.576;2023-05-19T10:30:21;101871.44;;;20.40;52.96
18500;BME280;9379;52.134;11.576;2023-05-19T10:32:52;101875.56;;;21.16;51.98
18500;BME280;9379;52.134;11.576;2023-05-19T10:38:26;101866.97;;;21.12;51.11
18500;BME280;9379;52.134;11.576;2023-05-19T10:41:03;101874.91;;;21.14;51.16
18500;BME280;9379;52.134;11.576;2023-05-19T10:43:43;101868.56;;;21.46;49.53
18500;BME280;9379;52.134;11.576;2023-05-19T10:46:13;101867.34;;;20.93;50.10
18500;BME280;9379;52.134;11.576;2023-05-19T10:48:43;101858.97;;;20.39;51.06
18500;BME280;9379;52.134;11.576;2023-05-19T10:51:10;101850.19;;;20.53;51.33
18500;BME280;9379;52.134;11.576;2023-05-19T10:53:41;101846.44;;;20.71;50.15
18500;BME280;9379;52.134;11.576;2023-05-19T10:56:26;101843.41;;;20.33;51.26
18500;BME280;9379;52.134;11.576;2023-05-19T10:58:55;101844.53;;;21.04;49.80
18500;BME280;9379;52.134;11.576;2023-05-19T11:01:29;101833.78;;;22.20;48.39
18500;BME280;9379;52.134;11.576;2023-05-19T11:03:56;101836.56;;;21.89;48.67
18500;BME280;9379;52.134;11.576;2023-05-19T11:06:27;101854.00;;;21.00;50.04
18500;BME280;9379;52.134;11.576;2023-05-19T11:08:57;101843.00;;;21.09;50.66
18500;BME280;9379;52.134;11.576;2023-05-19T11:11:25;101844.69;;;21.10;50.27
18500;BME280;9379;52.134;11.576;2023-05-19T11:13:53;101842.06;;;20.69;50.98
18500;BME280;9379;52.134;11.576;2023-05-19T11:16:31;101845.78;;;20.77;49.38
18500;BME280;9379;52.134;11.576;2023-05-19T11:18:58;101845.63;;;20.46;50.81
18500;BME280;9379;52.134;11.576;2023-05-19T11:21:40;101833.22;;;21.78;49.34
18500;BME280;9379;52.134;11.576;2023-05-19T11:24:08;101834.91;;;22.86;47.42
18500;BME280;9379;52.134;11.576;2023-05-19T11:26:41;101836.41;;;23.03;46.84
18500;BME280;9379;52.134;11.576;2023-05-19T11:29:09;101833.56;;;22.82;47.97
18500;BME280;9379;52.134;11.576;2023-05-19T11:31:38;101828.03;;;22.75;48.17
18500;BME280;9379;52.134;11.576;2023-05-19T11:34:05;101840.53;;;22.01;49.08
18500;BME280;9379;52.134;11.576;2023-05-19T11:36:33;101824.19;;;21.24;50.30
18500;BME280;9379;52.134;11.576;2023-05-19T11:39:01;101826.50;;;20.88;50.82
18500;BME280;9379;52.134;11.576;2023-05-19T11:41:31;101822.47;;;20.84;50.08
18500;BME280;9379;52.134;11.576;2023-05-19T11:43:58;101825.59;;;21.51;50.01
18500;BME280;9379;52.134;11.576;2023-05-19T11:46:25;101823.00;;;21.66;49.31
18500;BME280;9379;52.134;11.576;2023-05-19T11:48:52;101814.47;;;22.00;49.37
18500;BME280;9379;52.134;11.576;2023-05-19T11:51:20;101818.59;;;20.78;49.96
18500;BME280;9379;52.134;11.576;2023-05-19T11:53:49;101802.47;;;21.01;51.15
18500;BME280;9379;52.134;11.576;2023-05-19T11:56:18;101825.53;;;20.64;50.18
18500;BME280;9379;52.134;11.576;2023-05-19T11:58:47;101799.84;;;20.68;49.69
18500;BME280;9379;52.134;11.576;2023-05-19T12:01:14;101824.53;;;20.65;50.02
18500;BME280;9379;52.134;11.576;2023-05-19T12:03:40;101817.66;;;21.49;48.76
18500;BME280;9379;52.134;11.576;2023-05-19T12:06:07;101800.41;;;22.42;46.58
18500;BME280;9379;52.134;11.576;2023-05-19T12:08:35;101800.44;;;22.57;45.58
18500;BME280;9379;52.134;11.576;2023-05-19T12:11:03;101802.28;;;22.27;46.62
18500;BME280;9379;52.134;11.576;2023-05-19T12:13:30;101822.47;;;20.84;48.49
18500;BME280;9379;52.134;11.576;2023-05-19T12:16:00;101801.34;;;20.71;48.73
18500;BME280;9379;52.134;11.576;2023-05-19T12:18:29;101801.88;;;20.75;48.81
18500;BME280;9379;52.134;11.576;2023-05-19T12:20:57;101796.59;;;20.89;48.52
18500;BME280;9379;52.134;11.576;2023-05-19T12:23:24;101783.72;;;21.39;47.83
18500;BME280;9379;52.134;11.576;2023-05-19T12:25:55;101794.28;;;22.48;46.28
18500;BME280;9379;52.134;11.576;2023-05-19T12:28:22;101781.31;;;23.17;45.97
18500;BME280;9379;52.134;11.576;2023-05-19T12:30:49;101786.25;;;22.55;46.25
18500;BME280;9379;52.134;11.576;2023-05-19T12:33:18;101781.34;;;22.88;45.83
18500;BME280;9379;52.134;11.576;2023-05-19T12:35:47;101791.75;;;22.47;46.14
18500;BME280;9379;52.134;11.576;2023-05-19T12:38:14;101782.63;;;21.56;46.70
18500;BME280;9379;52.134;11.576;2023-05-19T12:40:42;101796.31;;;21.15;47.48
18500;BME280;9379;52.134;11.576;2023-05-19T12:43:18;101794.31;;;21.79;46.09
18500;BME280;9379;52.134;11.576;2023-05-19T12:45:46;101773.75;;;22.16;45.45
18500;BME280;9379;52.134;11.576;2023-05-19T12:48:14;101782.53;;;22.70;44.58
18500;BME280;9379;52.134;11.576;2023-05-19T12:50:43;101764.31;;;22.12;44.52
18500;BME280;9379;52.134;11.576;2023-05-19T12:53:11;101801.38;;;21.89;45.49
18500;BME280;9379;52.134;11.576;2023-05-19T12:55:42;101766.84;;;21.91;45.66
18500;BME280;9379;52.134;11.576;2023-05-19T12:58:10;101776.69;;;21.83;46.49
18500;BME280;9379;52.134;11.576;2023-05-19T13:00:41;101777.75;;;21.97;47.44
18500;BME280;9379;52.134;11.576;2023-05-19T13:03:14;101780.81;;;21.48;47.63
18500;BME280;9379;52.134;11.576;2023-05-19T13:05:44;101769.63;;;21.51;47.83
18500;BME280;9379;52.134;11.576;2023-05-19T13:08:12;101768.41;;;21.31;47.76
18500;BME280;9379;52.134;11.576;2023-05-19T13:10:40;101801.53;;;21.25;47.97
18500;BME280;9379;52.134;11.576;2023-05-19T13:13:07;101774.78;;;20.99;47.25
18500;BME280;9379;52.134;11.576;2023-05-19T13:15:36;101797.97;;;21.33;47.91
18500;BME280;9379;52.134;11.576;2023-05-19T13:18:05;101778.59;;;21.13;47.46
18500;BME280;9379;52.134;11.576;2023-05-19T13:20:33;101775.63;;;21.39;47.79
18500;BME280;9379;52.134;11.576;2023-05-19T13:23:01;101775.84;;;21.29;47.90
18500;BME280;9379;52.134;11.576;2023-05-19T13:25:29;101779.59;;;20.64;48.02
18500;BME280;9379;52.134;11.576;2023-05-19T13:27:56;101781.47;;;21.11;48.01